sensor_id;sensor_type;location;lat;lon;timestamp;pressure;altitude;pressure_sealevel;temperature;humidity
64713;BME280;51140;45.340;5.980;2023-08-31T00:02:06;97985.13;;;14.97;72.79
64713;BME280;51140;45.340;5.980;2023-08-31T00:04:32;97985.63;;;15.12;72.22
64713;BME280;51140;45.340;5.980;2023-08-31T00:06:57;97990.19;;;14.98;72.64
64713;BME280;51140;45.340;5.980;2023-08-31T00:09:23;97988.97;;;14.90;73.79
64713;BME280;51140;45.340;5.980;2023-08-31T00:11:49;97980.66;;;14.92;73.84
64713;BME280;51140;45.340;5.980;2023-08-31T00:14:16;97983.63;;;14.90;74.41
64713;BME280;51140;45.340;5.980;2023-08-31T00:16:42;97985.81;;;15.02;73.08
64713;BME280;51140;45.340;5.980;2023-08-31T00:19:08;97981.19;;;14.62;72.63
64713;BME280;51140;45.340;5.980;2023-08-31T00:21:33;97989.50;;;14.47;73.18
64713;BME280;51140;45.340;5.980;2023-08-31T00:23:58;97996.28;;;14.85;74.75
64713;BME280;51140;45.340;5.980;2023-08-31T00:26:24;98001.50;;;14.63;75.19
64713;BME280;51140;45.340;5.980;2023-08-31T00:28:50;98011.63;;;14.79;72.16
64713;BME280;51140;45.340;5.980;2023-08-31T00:31:15;98013.09;;;14.40;73.42
64713;BME280;51140;45.340;5.980;2023-08-31T00:33:41;98016.59;;;14.54;73.19
64713;BME280;51140;45.340;5.980;2023-08-31T00:36:06;98017.53;;;14.63;73.02
64713;BME280;51140;45.340;5.980;2023-08-31T00:38:32;98018.34;;;14.45;75.00
64713;BME280;51140;45.340;5.980;2023-08-31T00:40:58;98030.00;;;14.35;75.74
64713;BME280;51140;45.340;5.980;2023-08-31T00:43:23;98029.81;;;14.08;75.69
64713;BME280;51140;45.340;5.980;2023-08-31T00:45:50;98027.22;;;14.21;75.37
64713;BME280;51140;45.340;5.980;2023-08-31T00:48:17;98028.09;;;14.36;74.78
64713;BME280;51140;45.340;5.980;2023-08-31T00:50:46;98026.59;;;14.29;75.19
64713;BME280;51140;45.340;5.980;2023-08-31T00:53:12;98024.84;;;14.39;75.21
64713;BME280;51140;45.340;5.980;2023-08-31T00:55:38;98019.63;;;14.79;75.58
64713;BME280;51140;45.340;5.980;2023-08-31T00:58:07;98024.59;;;14.86;74.85
64713;BME280;51140;45.340;5.980;2023-08-31T01:06:00;98023.59;;;14.31;77.16
64713;BME280;51140;45.340;5.980;2023-08-31T01:08:58;98020.75;;;14.46;76.96
64713;BME280;51140;45.340;5.980;2023-08-31T01:14:11;98015.66;;;14.77;76.00
64713;BME280;51140;45.340;5.980;2023-08-31T01:16:42;98016.72;;;14.62;77.09
64713;BME280;51140;45.340;5.980;2023-08-31T01:22:05;98020.28;;;14.58;75.21
64713;BME280;51140;45.340;5.980;2023-08-31T01:24:32;98026.22;;;14.36;75.31
64713;BME280;51140;45.340;5.980;2023-08-31T01:26:59;98027.16;;;14.26;75.40
64713;BME280;51140;45.340;5.980;2023-08-31T01:29:24;98019.59;;;13.96;76.40
64713;BME280;51140;45.340;5.980;2023-08-31T01:31:51;98018.00;;;14.14;74.71
64713;BME280;51140;45.340;5.980;2023-08-31T01:34:16;98020.81;;;14.22;74.79
64713;BME280;51140;45.340;5.980;2023-08-31T01:36:46;98022.41;;;14.23;76.00
64713;BME280;51140;45.340;5.980;2023-08-31T01:39:21;98012.25;;;14.07;76.70
64713;BME280;51140;45.340;5.980;2023-08-31T01:41:52;98020.47;;;13.92;77.32
64713;BME280;51140;45.340;5.980;2023-08-31T01:44:20;98014.97;;;14.02;77.39
64713;BME280;51140;45.340;5.980;2023-08-31T01:46:47;98012.94;;;14.31;75.98
64713;BME280;51140;45.340;5.980;2023-08-31T01:49:13;98015.53;;;14.17;76.90
64713;BME280;51140;45.340;5.980;2023-08-31T01:51:39;98012.28;;;14.39;75.09
64713;BME280;51140;45.340;5.980;2023-08-31T01:54:04;98007.94;;;14.24;76.44
64713;BME280;51140;45.340;5.980;2023-08-31T01:56:30;98012.44;;;13.92;76.95
64713;BME280;51140;45.340;5.980;2023-08-31T01:58:56;98017.06;;;14.23;77.03
64713;BME280;51140;45.340;5.980;2023-08-31T02:01:21;98017.13;;;14.18;77.32
64713;BME280;51140;45.340;5.980;2023-08-31T02:03:46;98017.78;;;14.61;77.10
64713;BME280;51140;45.340;5.980;2023-08-31T02:06:12;98014.59;;;14.46;74.98
64713;BME280;51140;45.340;5.980;2023-08-31T02:08:37;98008.47;;;14.45;75.08
64713;BME280;51140;45.340;5.980;2023-08-31T02:11:02;98003.91;;;14.46;76.92
64713;BME280;51140;45.340;5.980;2023-08-31T02:13:29;98010.91;;;14.42;75.09
64713;BME280;51140;45.340;5.980;2023-08-31T02:15:55;98006.16;;;14.01;77.13
64713;BME280;51140;45.340;5.980;2023-08-31T02:18:20;98009.28;;;14.08;76.61
64713;BME280;51140;45.340;5.980;2023-08-31T02:20:46;98005.72;;;14.31;75.06
64713;BME280;51140;45.340;5.980;2023-08-31T02:23:11;98004.88;;;14.17;75.90
64713;BME280;51140;45.340;5.980;2023-08-31T02:25:37;98013.31;;;14.06;76.04
64713;BME280;51140;45.340;5.980;2023-08-31T02:28:03;98004.59;;;14.00;76.63
64713;BME280;51140;45.340;5.980;2023-08-31T02:30:28;98001.34;;;14.03;76.79
64713;BME280;51140;45.340;5.980;2023-08-31T02:32:54;97996.69;;;14.27;76.30
64713;BME280;51140;45.340;5.980;2023-08-31T02:35:19;97992.53;;;13.84;76.80
64713;BME280;51140;45.340;5.980;2023-08-31T02:37:45;97987.44;;;13.69;78.16
64713;BME280;51140;45.340;5.980;2023-08-31T02:40:10;97988.09;;;13.98;76.08
64713;BME280;51140;45.340;5.980;2023-08-31T02:42:36;97992.91;;;14.15;75.62
64713;BME280;51140;45.340;5.980;2023-08-31T02:45:02;97996.53;;;13.87;76.59
64713;BME280;51140;45.340;5.980;2023-08-31T02:47:28;97997.81;;;13.89;75.72
64713;BME280;51140;45.340;5.980;2023-08-31T02:49:53;97997.88;;;14.03;75.40
64713;BME280;51140;45.340;5.980;2023-08-31T02:52:18;97999.38;;;13.90;75.48
64713;BME280;51140;45.340;5.980;2023-08-31T02:54:44;97996.38;;;13.97;75.94
64713;BME280;51140;45.340;5.980;2023-08-31T02:57:09;97990.66;;;13.85;75.60
64713;BME280;51140;45.340;5.980;2023-08-31T02:59:35;98001.28;;;13.90;74.93
64713;BME280;51140;45.340;5.980;2023-08-31T03:02:02;98004.06;;;14.17;75.62
64713;BME280;51140;45.340;5.980;2023-08-31T03:04:28;98005.09;;;13.84;76.55
64713;BME280;51140;45.340;5.980;2023-08-31T03:06:53;97997.53;;;13.72;75.76
64713;BME280;51140;45.340;5.980;2023-08-31T03:09:18;98005.25;;;13.92;74.31
64713;BME280;51140;45.340;5.980;2023-08-31T03:11:45;98004.00;;;13.85;74.04
64713;BME280;51140;45.340;5.980;2023-08-31T03:14:10;98002.22;;;13.80;76.13
64713;BME280;51140;45.340;5.980;2023-08-31T03:16:36;98009.00;;;13.91;76.38
64713;BME280;51140;45.340;5.980;2023-08-31T03:19:01;98006.59;;;14.08;76.91
64713;BME280;51140;45.340;5.980;2023-08-31T03:21:27;98016.63;;;14.16;76.58
64713;BME280;51140;45.340;5.980;2023-08-31T03:23:52;98018.88;;;13.91;77.32
64713;BME280;51140;45.340;5.980;2023-08-31T03:26:17;98026.22;;;13.80;78.08
64713;BME280;51140;45.340;5.980;2023-08-31T03:28:43;98026.63;;;13.87;75.82
64713;BME280;51140;45.340;5.980;2023-08-31T03:31:08;98026.81;;;13.53;77.63
64713;BME280;51140;45.340;5.980;2023-08-31T03:33:34;98029.47;;;13.77;78.13
64713;BME280;51140;45.340;5.980;2023-08-31T03:36:01;98032.63;;;13.79;77.54
64713;BME280;51140;45.340;5.980;2023-08-31T03:38:27;98023.06;;;13.97;77.09
64713;BME280;51140;45.340;5.980;2023-08-31T03:40:56;98036.31;;;14.02;76.14
64713;BME280;51140;45.340;5.980;2023-08-31T03:43:22;98038.34;;;14.10;76.47
64713;BME280;51140;45.340;5.980;2023-08-31T03:45:48;98049.78;;;13.73;77.69
64713;BME280;51140;45.340;5.980;2023-08-31T03:48:14;98047.50;;;13.85;76.35
64713;BME280;51140;45.340;5.980;2023-08-31T03:50:40;98052.16;;;13.74;76.74
64713;BME280;51140;45.340;5.980;2023-08-31T03:53:05;98043.13;;;13.52;77.14
64713;BME280;51140;45.340;5.980;2023-08-31T03:55:30;98046.41;;;13.20;77.58
64713;BME280;51140;45.340;5.980;2023-08-31T03:57:56;98057.16;;;13.10;78.82
64713;BME280;51140;45.340;5.980;2023-08-31T04:00:21;98057.34;;;13.18;79.20
64713;BME280;51140;45.340;5.980;2023-08-31T04:02:47;98057.50;;;13.27;78.30
64713;BME280;51140;45.340;5.980;2023-08-31T04:05:12;98051.50;;;13.64;77.90
64713;BME280;51140;45.340;5.980;2023-08-31T04:07:40;98062.75;;;13.61;78.14
64713;BME280;51140;45.340;5.980;2023-08-31T04:10:06;98068.53;;;13.21;78.66
64713;BME280;51140;45.340;5.980;2023-08-31T04:12:32;98066.94;;;13.19;78.99
64713;BME280;51140;45.340;5.980;2023-08-31T04:14:57;98068.06;;;13.13;79.75
64713;BME280;51140;45.340;5.980;2023-08-31T04:17:23;98070.19;;;12.83;80.76
64713;BME280;51140;45.340;5.980;2023-08-31T04:19:50;98082.66;;;12.87;81.97
64713;BME280;51140;45.340;5.980;2023-08-31T04:22:15;98081.44;;;12.75;80.37
64713;BME280;51140;45.340;5.980;2023-08-31T04:24:40;98085.41;;;12.77;80.14
64713;BME280;51140;45.340;5.980;2023-08-31T04:27:06;98089.53;;;12.93;80.76
64713;BME280;51140;45.340;5.980;2023-08-31T04:29:31;98097.03;;;12.91;80.08
64713;BME280;51140;45.340;5.980;2023-08-31T04:31:57;98092.34;;;12.78;80.31
64713;BME280;51140;45.340;5.980;2023-08-31T04:34:23;98102.34;;;12.91;81.54
64713;BME280;51140;45.340;5.980;2023-08-31T04:36:49;98111.25;;;13.10;80.26
64713;BME280;51140;45.340;5.980;2023-08-31T04:39:14;98108.94;;;12.99;78.76
64713;BME280;51140;45.340;5.980;2023-08-31T04:41:40;98100.34;;;13.12;79.25
64713;BME280;51140;45.340;5.980;2023-08-31T04:44:05;98098.44;;;13.41;79.17
64713;BME280;51140;45.340;5.980;2023-08-31T04:46:30;98107.78;;;13.62;78.50
64713;BME280;51140;45.340;5.980;2023-08-31T04:48:56;98111.84;;;13.02;78.00
64713;BME280;51140;45.340;5.980;2023-08-31T04:51:32;98112.88;;;13.06;78.31
64713;BME280;51140;45.340;5.980;2023-08-31T04:53:58;98116.09;;;13.03;78.68
64713;BME280;51140;45.340;5.980;2023-08-31T04:56:23;98115.34;;;12.98;78.86
64713;BME280;51140;45.340;5.980;2023-08-31T04:58:49;98121.19;;;13.00;79.03
64713;BME280;51140;45.340;5.980;2023-08-31T05:01:14;98119.44;;;13.19;77.51
64713;BME280;51140;45.340;5.980;2023-08-31T05:03:41;98126.13;;;13.16;77.14
64713;BME280;51140;45.340;5.980;2023-08-31T05:06:06;98124.56;;;13.15;78.24
64713;BME280;51140;45.340;5.980;2023-08-31T05:08:33;98125.53;;;12.91;76.99
64713;BME280;51140;45.340;5.980;2023-08-31T05:10:59;98137.09;;;12.76;78.35
64713;BME280;51140;45.340;5.980;2023-08-31T05:13:24;98135.81;;;12.69;78.94
64713;BME280;51140;45.340;5.980;2023-08-31T05:15:49;98134.81;;;12.98;77.81
64713;BME280;51140;45.340;5.980;2023-08-31T05:18:15;98132.16;;;12.93;78.69
64713;BME280;51140;45.340;5.980;2023-08-31T05:20:44;98137.84;;;12.87;78.18
64713;BME280;51140;45.340;5.980;2023-08-31T05:23:09;98141.09;;;13.12;78.75
64713;BME280;51140;45.340;5.980;2023-08-31T05:25:35;98139.75;;;13.15;77.98
64713;BME280;51140;45.340;5.980;2023-08-31T05:28:00;98145.63;;;13.12;78.39
64713;BME280;51140;45.340;5.980;2023-08-31T05:30:26;98136.34;;;13.09;79.17
64713;BME280;51140;45.340;5.980;2023-08-31T05:32:51;98152.59;;;13.37;78.81
64713;BME280;51140;45.340;5.980;2023-08-31T05:35:16;98144.41;;;13.81;77.61
64713;BME280;51140;45.340;5.980;2023-08-31T05:37:42;98150.00;;;13.79;77.91
64713;BME280;51140;45.340;5.980;2023-08-31T05:40:08;98151.72;;;13.70;78.40
64713;BME280;51140;45.340;5.980;2023-08-31T05:42:35;98154.00;;;13.58;79.49
64713;BME280;51140;45.340;5.980;2023-08-31T05:45:01;98159.53;;;13.61;79.05
64713;BME280;51140;45.340;5.980;2023-08-31T05:47:26;98157.50;;;13.77;78.49
64713;BME280;51140;45.340;5.980;2023-08-31T05:49:52;98158.41;;;13.44;78.82
64713;BME280;51140;45.340;5.980;2023-08-31T05:52:17;98170.94;;;13.14;80.68
64713;BME280;51140;45.340;5.980;2023-08-31T05:54:42;98175.25;;;13.05;81.17
64713;BME280;51140;45.340;5.980;2023-08-31T05:57:08;98178.81;;;13.25;79.98
64713;BME280;51140;45.340;5.980;2023-08-31T05:59:33;98175.97;;;13.45;79.25
64713;BME280;51140;45.340;5.980;2023-08-31T06:01:58;98182.34;;;13.20;79.81
64713;BME280;51140;45.340;5.980;2023-08-31T06:04:24;98191.28;;;13.00;80.32
64713;BME280;51140;45.340;5.980;2023-08-31T06:06:49;98181.97;;;12.93;79.96
64713;BME280;51140;45.340;5.980;2023-08-31T06:09:18;98181.84;;;13.18;80.24
64713;BME280;51140;45.340;5.980;2023-08-31T06:11:43;98181.53;;;13.19;79.79
64713;BME280;51140;45.340;5.980;2023-08-31T06:14:09;98180.53;;;13.10;80.14
64713;BME280;51140;45.340;5.980;2023-08-31T06:16:35;98187.75;;;13.10;80.23
64713;BME280;51140;45.340;5.980;2023-08-31T06:19:00;98198.72;;;13.66;80.26
64713;BME280;51140;45.340;5.980;2023-08-31T06:21:26;98196.63;;;13.63;80.30
64713;BME280;51140;45.340;5.980;2023-08-31T06:23:51;98195.53;;;13.88;79.56
64713;BME280;51140;45.340;5.980;2023-08-31T06:26:16;98190.78;;;13.85;81.31
64713;BME280;51140;45.340;5.980;2023-08-31T06:28:42;98188.91;;;14.09;80.49
64713;BME280;51140;45.340;5.980;2023-08-31T06:31:07;98186.66;;;14.40;78.62
64713;BME280;51140;45.340;5.980;2023-08-31T06:33:33;98195.56;;;14.54;79.86
64713;BME280;51140;45.340;5.980;2023-08-31T06:35:59;98192.69;;;14.69;79.11
64713;BME280;51140;45.340;5.980;2023-08-31T06:38:24;98193.97;;;14.71;78.12
64713;BME280;51140;45.340;5.980;2023-08-31T06:40:50;98192.59;;;14.37;79.44
64713;BME280;51140;45.340;5.980;2023-08-31T06:43:15;98194.50;;;14.31;80.92
64713;BME280;51140;45.340;5.980;2023-08-31T06:45:41;98190.44;;;13.91;80.41
64713;BME280;51140;45.340;5.980;2023-08-31T06:48:06;98191.31;;;14.29;79.31
64713;BME280;51140;45.340;5.980;2023-08-31T06:50:33;98197.09;;;14.60;79.67
64713;BME280;51140;45.340;5.980;2023-08-31T06:53:00;98200.78;;;14.64;79.44
64713;BME280;51140;45.340;5.980;2023-08-31T06:55:26;98199.69;;;14.65;79.32
64713;BME280;51140;45.340;5.980;2023-08-31T06:57:51;98205.88;;;14.42;80.57
64713;BME280;51140;45.340;5.980;2023-08-31T07:00:17;98201.28;;;14.00;81.31
64713;BME280;51140;45.340;5.980;2023-08-31T07:02:43;98195.94;;;14.00;80.91
64713;BME280;51140;45.340;5.980;2023-08-31T07:05:10;98189.56;;;14.19;81.48
64713;BME280;51140;45.340;5.980;2023-08-31T07:07:36;98184.53;;;14.18;82.23
64713;BME280;51140;45.340;5.980;2023-08-31T07:10:02;98187.81;;;14.33;81.17
64713;BME280;51140;45.340;5.980;2023-08-31T07:12:27;98193.19;;;14.52;79.87
64713;BME280;51140;45.340;5.980;2023-08-31T07:14:53;98211.16;;;14.47;78.82
64713;BME280;51140;45.340;5.980;2023-08-31T07:17:18;98200.66;;;14.08;79.96
64713;BME280;51140;45.340;5.980;2023-08-31T07:19:44;98190.72;;;14.37;79.38
64713;BME280;51140;45.340;5.980;2023-08-31T07:22:09;98195.06;;;14.52;79.79
64713;BME280;51140;45.340;5.980;2023-08-31T07:24:35;98199.75;;;14.17;80.44
64713;BME280;51140;45.340;5.980;2023-08-31T07:27:02;98197.72;;;14.09;80.65
64713;BME280;51140;45.340;5.980;2023-08-31T07:29:27;98194.75;;;14.35;80.26
64713;BME280;51140;45.340;5.980;2023-08-31T07:31:53;98202.84;;;14.24;79.86
64713;BME280;51140;45.340;5.980;2023-08-31T07:34:18;98208.59;;;14.13;80.47
64713;BME280;51140;45.340;5.980;2023-08-31T07:36:44;98214.56;;;14.28;79.99
64713;BME280;51140;45.340;5.980;2023-08-31T07:39:09;98207.69;;;14.22;79.54
64713;BME280;51140;45.340;5.980;2023-08-31T07:41:35;98214.88;;;14.03;80.37
64713;BME280;51140;45.340;5.980;2023-08-31T07:44:00;98218.94;;;13.96;81.25
64713;BME280;51140;45.340;5.980;2023-08-31T07:46:28;98218.16;;;13.95;80.26
64713;BME280;51140;45.340;5.980;2023-08-31T07:48:53;98225.75;;;13.83;81.18
64713;BME280;51140;45.340;5.980;2023-08-31T07:51:18;98228.94;;;13.85;81.21
64713;BME280;51140;45.340;5.980;2023-08-31T07:53:48;98238.50;;;14.15;80.92
64713;BME280;51140;45.340;5.980;2023-08-31T07:56:13;98235.88;;;14.33;77.16
64713;BME280;51140;45.340;5.980;2023-08-31T07:58:39;98236.13;;;14.37;75.72
64713;BME280;51140;45.340;5.980;2023-08-31T08:01:05;98232.38;;;14.38;75.79
64713;BME280;51140;45.340;5.980;2023-08-31T08:03:30;98225.69;;;14.36;76.27
64713;BME280;51140;45.340;5.980;2023-08-31T08:05:56;98216.13;;;14.53;75.37
64713;BME280;51140;45.340;5.980;2023-08-31T08:08:21;98229.41;;;14.58;76.95
64713;BME280;51140;45.340;5.980;2023-08-31T08:10:47;98226.13;;;14.66;76.17
64713;BME280;51140;45.340;5.980;2023-08-31T08:13:12;98226.41;;;14.65;76.98
64713;BME280;51140;45.340;5.980;2023-08-31T08:15:38;98217.09;;;14.81;76.07
64713;BME280;51140;45.340;5.980;2023-08-31T08:18:04;98227.41;;;14.69;77.08
64713;BME280;51140;45.340;5.980;2023-08-31T08:20:29;98233.78;;;14.92;76.31
64713;BME280;51140;45.340;5.980;2023-08-31T08:22:55;98230.00;;;15.11;76.13
64713;BME280;51140;45.340;5.980;2023-08-31T08:25:21;98233.75;;;15.29;75.23
64713;BME280;51140;45.340;5.980;2023-08-31T08:27:47;98221.69;;;15.45;75.43
64713;BME280;51140;45.340;5.980;2023-08-31T08:30:13;98216.97;;;16.15;70.29
64713;BME280;51140;45.340;5.980;2023-08-31T08:32:39;98223.28;;;16.96;70.09
64713;BME280;51140;45.340;5.980;2023-08-31T08:35:05;98223.22;;;17.23;67.98
64713;BME280;51140;45.340;5.980;2023-08-31T08:37:31;98229.31;;;17.90;65.72
64713;BME280;51140;45.340;5.980;2023-08-31T08:39:58;98224.47;;;17.70;66.77
64713;BME280;51140;45.340;5.980;2023-08-31T08:42:24;98222.81;;;18.30;63.00
64713;BME280;51140;45.340;5.980;2023-08-31T08:44:51;98222.84;;;18.39;63.49
64713;BME280;51140;45.340;5.980;2023-08-31T08:47:17;98215.06;;;18.85;61.42
64713;BME280;51140;45.340;5.980;2023-08-31T08:49:43;98211.69;;;18.54;62.58
64713;BME280;51140;45.340;5.980;2023-08-31T08:52:10;98227.88;;;19.06;61.58
64713;BME280;51140;45.340;5.980;2023-08-31T08:54:38;98212.34;;;19.37;60.69
64713;BME280;51140;45.340;5.980;2023-08-31T08:57:04;98212.03;;;19.21;59.52
64713;BME280;51140;45.340;5.980;2023-08-31T08:59:32;98241.81;;;19.42;58.36
64713;BME280;51140;45.340;5.980;2023-08-31T09:01:58;98256.50;;;19.62;58.11
64713;BME280;51140;45.340;5.980;2023-08-31T09:04:24;98228.84;;;19.90;59.24
64713;BME280;51140;45.340;5.980;2023-08-31T09:06:52;98214.84;;;19.59;59.46
64713;BME280;51140;45.340;5.980;2023-08-31T09:09:18;98202.69;;;19.45;62.92
64713;BME280;51140;45.340;5.980;2023-08-31T09:11:45;98243.03;;;19.62;58.65
64713;BME280;51140;45.340;5.980;2023-08-31T09:14:18;98177.09;;;19.76;60.55
64713;BME280;51140;45.340;5.980;2023-08-31T09:16:48;98226.97;;;19.91;59.39
64713;BME280;51140;45.340;5.980;2023-08-31T09:19:21;98242.47;;;19.94;61.10
64713;BME280;51140;45.340;5.980;2023-08-31T09:21:51;98269.06;;;20.04;57.42
64713;BME280;51140;45.340;5.980;2023-08-31T09:24:17;98239.63;;;19.90;56.77
64713;BME280;51140;45.340;5.980;2023-08-31T09:26:58;98255.72;;;20.16;56.45
64713;BME280;51140;45.340;5.980;2023-08-31T09:29:24;98240.13;;;20.30;57.06
64713;BME280;51140;45.340;5.980;2023-08-31T09:31:50;98303.06;;;20.43;54.33
64713;BME280;51140;45.340;5.980;2023-08-31T09:34:16;98253.31;;;20.32;55.74
64713;BME280;51140;45.340;5.980;2023-08-31T09:36:42;98257.56;;;20.24;55.62
64713;BME280;51140;45.340;5.980;2023-08-31T09:39:09;98279.59;;;20.93;55.03
64713;BME280;51140;45.340;5.980;2023-08-31T09:41:35;98193.47;;;21.00;58.14
64713;BME280;51140;45.340;5.980;2023-08-31T09:44:18;98220.78;;;21.07;56.13
64713;BME280;51140;45.340;5.980;2023-08-31T09:46:44;98242.53;;;21.02;55.75
64713;BME280;51140;45.340;5.980;2023-08-31T09:49:13;98256.31;;;20.89;55.89
64713;BME280;51140;45.340;5.980;2023-08-31T09:51:43;98235.47;;;20.89;56.16
64713;BME280;51140;45.340;5.980;2023-08-31T09:54:09;98224.94;;;21.38;56.26
64713;BME280;51140;45.340;5.980;2023-08-31T09:56:40;98305.63;;;21.19;52.11
64713;BME280;51140;45.340;5.980;2023-08-31T09:59:07;98300.63;;;20.79;52.13
64713;BME280;51140;45.340;5.980;2023-08-31T10:01:32;98198.22;;;21.24;55.50
64713;BME280;51140;45.340;5.980;2023-08-31T10:03:59;98273.69;;;21.21;52.52
64713;BME280;51140;45.340;5.980;2023-08-31T10:06:24;98246.41;;;21.88;53.63
64713;BME280;51140;45.340;5.980;2023-08-31T10:08:51;98309.72;;;21.78;50.46
64713;BME280;51140;45.340;5.980;2023-08-31T10:11:17;98178.97;;;21.58;54.68
64713;BME280;51140;45.340;5.980;2023-08-31T10:13:44;98073.88;;;21.90;58.88
64713;BME280;51140;45.340;5.980;2023-08-31T10:16:11;98259.38;;;22.06;52.86
64713;BME280;51140;45.340;5.980;2023-08-31T10:18:37;98132.06;;;22.23;56.57
64713;BME280;51140;45.340;5.980;2023-08-31T10:21:02;98313.81;;;22.17;51.16
64713;BME280;51140;45.340;5.980;2023-08-31T10:23:29;98241.84;;;22.49;52.88
64713;BME280;51140;45.340;5.980;2023-08-31T10:28:22;98196.94;;;22.72;52.73
64713;BME280;51140;45.340;5.980;2023-08-31T10:31:07;98224.44;;;22.86;51.57
64713;BME280;51140;45.340;5.980;2023-08-31T10:36:18;98152.34;;;22.94;53.52
64713;BME280;51140;45.340;5.980;2023-08-31T10:38:59;98282.59;;;23.04;49.14
64713;BME280;51140;45.340;5.980;2023-08-31T10:41:32;98240.75;;;23.02;50.16
64713;BME280;51140;45.340;5.980;2023-08-31T10:43:58;98330.91;;;22.90;47.19
64713;BME280;51140;45.340;5.980;2023-08-31T10:46:32;98324.13;;;23.08;47.06
64713;BME280;51140;45.340;5.980;2023-08-31T10:51:36;98289.34;;;23.10;47.24
64713;BME280;51140;45.340;5.980;2023-08-31T10:56:30;98300.69;;;22.76;46.74
64713;BME280;51140;45.340;5.980;2023-08-31T10:59:00;98195.53;;;23.02;50.87
64713;BME280;51140;45.340;5.980;2023-08-31T11:01:51;98264.16;;;22.82;48.79
64713;BME280;51140;45.340;5.980;2023-08-31T11:04:17;98368.31;;;23.00;45.28
64713;BME280;51140;45.340;5.980;2023-08-31T11:06:42;98390.47;;;23.02;44.62
64713;BME280;51140;45.340;5.980;2023-08-31T11:09:18;98300.44;;;22.93;46.67
64713;BME280;51140;45.340;5.980;2023-08-31T11:11:44;98173.09;;;22.90;50.23
64713;BME280;51140;45.340;5.980;2023-08-31T11:14:10;98050.81;;;23.00;53.37
64713;BME280;51140;45.340;5.980;2023-08-31T11:16:38;98195.28;;;23.63;49.21
64713;BME280;51140;45.340;5.980;2023-08-31T11:19:03;98353.16;;;23.60;45.34
64713;BME280;51140;45.340;5.980;2023-08-31T11:21:30;98271.84;;;23.20;47.44
64713;BME280;51140;45.340;5.980;2023-08-31T11:23:57;98243.22;;;23.47;48.13
64713;BME280;51140;45.340;5.980;2023-08-31T11:26:29;98302.34;;;23.57;46.27
64713;BME280;51140;45.340;5.980;2023-08-31T11:28:56;98230.81;;;23.46;46.22
64713;BME280;51140;45.340;5.980;2023-08-31T11:31:25;98258.88;;;23.53;46.79
64713;BME280;51140;45.340;5.980;2023-08-31T11:33:50;98285.16;;;23.25;46.22
64713;BME280;51140;45.340;5.980;2023-08-31T11:36:16;98335.09;;;23.52;44.74
64713;BME280;51140;45.340;5.980;2023-08-31T11:38:44;98255.50;;;23.72;48.01
64713;BME280;51140;45.340;5.980;2023-08-31T11:41:09;98442.34;;;23.53;42.41
64713;BME280;51140;45.340;5.980;2023-08-31T11:43:36;98222.38;;;23.63;49.69
64713;BME280;51140;45.340;5.980;2023-08-31T11:46:02;98292.91;;;23.94;45.39
64713;BME280;51140;45.340;5.980;2023-08-31T11:48:30;98206.91;;;23.79;50.04
64713;BME280;51140;45.340;5.980;2023-08-31T11:50:55;98282.13;;;23.98;46.67
64713;BME280;51140;45.340;5.980;2023-08-31T11:53:21;98287.84;;;24.08;46.44
64713;BME280;51140;45.340;5.980;2023-08-31T11:55:51;98155.47;;;23.98;50.17
64713;BME280;51140;45.340;5.980;2023-08-31T11:58:17;98312.38;;;23.84;44.90
64713;BME280;51140;45.340;5.980;2023-08-31T12:00:43;98273.78;;;24.18;45.51
64713;BME280;51140;45.340;5.980;2023-08-31T12:03:09;98343.34;;;24.26;44.15
64713;BME280;51140;45.340;5.980;2023-08-31T12:05:47;98383.78;;;24.16;42.44
64713;BME280;51140;45.340;5.980;2023-08-31T12:08:16;98326.72;;;24.12;43.15
64713;BME280;51140;45.340;5.980;2023-08-31T12:10:48;98292.47;;;24.08;44.80
64713;BME280;51140;45.340;5.980;2023-08-31T12:13:14;98192.31;;;24.15;49.38
64713;BME280;51140;45.340;5.980;2023-08-31T12:15:39;98259.97;;;24.39;45.23
64713;BME280;51140;45.340;5.980;2023-08-31T12:18:12;98357.72;;;24.27;43.28
64713;BME280;51140;45.340;5.980;2023-08-31T12:20:49;98323.59;;;23.98;43.80
64713;BME280;51140;45.340;5.980;2023-08-31T12:23:18;98352.66;;;23.06;44.09
64713;BME280;51140;45.340;5.980;2023-08-31T12:25:55;98120.34;;;23.55;51.81
64713;BME280;51140;45.340;5.980;2023-08-31T12:28:22;98293.66;;;23.51;45.06
64713;BME280;51140;45.340;5.980;2023-08-31T12:30:53;98204.47;;;23.89;47.06
64713;BME280;51140;45.340;5.980;2023-08-31T12:33:20;98313.28;;;23.88;43.96
64713;BME280;51140;45.340;5.980;2023-08-31T12:35:46;98225.28;;;24.01;46.88
64713;BME280;51140;45.340;5.980;2023-08-31T12:38:12;98230.66;;;24.13;45.88
64713;BME280;51140;45.340;5.980;2023-08-31T12:40:38;98279.03;;;24.42;44.79
64713;BME280;51140;45.340;5.980;2023-08-31T12:43:07;98356.75;;;24.66;42.27
64713;BME280;51140;45.340;5.980;2023-08-31T12:45:32;98364.88;;;24.35;41.75
64713;BME280;51140;45.340;5.980;2023-08-31T12:47:59;98395.69;;;23.71;42.53
64713;BME280;51140;45.340;5.980;2023-08-31T12:50:25;98201.31;;;24.34;48.55
64713;BME280;51140;45.340;5.980;2023-08-31T12:52:50;98280.34;;;24.48;44.68
64713;BME280;51140;45.340;5.980;2023-08-31T12:55:16;98175.09;;;24.23;49.44
64713;BME280;51140;45.340;5.980;2023-08-31T12:57:42;98360.44;;;23.99;43.05
64713;BME280;51140;45.340;5.980;2023-08-31T13:00:09;98387.28;;;24.04;41.12
64713;BME280;51140;45.340;5.980;2023-08-31T13:02:38;98214.34;;;23.82;48.07
64713;BME280;51140;45.340;5.980;2023-08-31T13:05:03;98339.19;;;24.01;42.41
64713;BME280;51140;45.340;5.980;2023-08-31T13:07:31;98373.72;;;24.16;41.31
64713;BME280;51140;45.340;5.980;2023-08-31T13:09:56;98341.34;;;24.55;42.31
64713;BME280;51140;45.340;5.980;2023-08-31T13:12:21;98334.19;;;24.31;42.42
64713;BME280;51140;45.340;5.980;2023-08-31T13:14:47;98236.56;;;24.50;46.12
64713;BME280;51140;45.340;5.980;2023-08-31T13:17:12;98249.25;;;24.46;45.63
64713;BME280;51140;45.340;5.980;2023-08-31T13:19:37;98308.63;;;24.47;41.90